createdAt,value
2023-02-04T00:00:09.999Z,2.88
2023-02-04T00:02:38.343Z,3.45
2023-02-04T00:05:05.548Z,3.28
2023-02-04T00:07:32.280Z,2.53
2023-02-04T00:09:59.097Z,4.07
2023-02-04T00:12:25.847Z,3.50
2023-02-04T00:14:52.501Z,2.80
2023-02-04T00:17:19.200Z,3.60
2023-02-04T00:19:45.927Z,3.33
2023-02-04T00:22:12.736Z,2.83
2023-02-04T00:24:39.441Z,2.80
2023-02-04T00:27:06.946Z,3.10
2023-02-04T00:29:33.674Z,3.83
2023-02-04T00:32:00.614Z,3.47
2023-02-04T00:34:27.455Z,3.40
2023-02-04T00:36:54.179Z,3.45
2023-02-04T00:39:21.002Z,2.95
2023-02-04T00:41:47.788Z,3.60
2023-02-04T00:44:14.562Z,3.05
2023-02-04T00:46:42.622Z,4.47
2023-02-04T00:49:10.833Z,3.60
2023-02-04T00:51:44.674Z,4.78
2023-02-04T00:54:11.375Z,4.63
2023-02-04T00:56:38.233Z,3.80
2023-02-04T00:59:04.964Z,3.97
2023-02-04T01:01:31.687Z,3.97
2023-02-04T01:03:58.397Z,6.43
2023-02-04T01:06:25.290Z,4.10
2023-02-04T01:08:52.505Z,3.60
2023-02-04T01:11:19.659Z,3.50
2023-02-04T01:13:46.888Z,3.17
2023-02-04T01:16:13.881Z,3.25
2023-02-04T01:18:41.614Z,3.00
2023-02-04T01:21:08.382Z,4.13
2023-02-04T01:23:35.145Z,3.15
2023-02-04T01:26:01.928Z,4.75
2023-02-04T01:28:28.737Z,3.58
2023-02-04T01:30:55.522Z,5.97
2023-02-04T01:33:22.830Z,4.72
2023-02-04T01:35:49.612Z,5.03
2023-02-04T01:38:16.342Z,3.60
2023-02-04T01:40:43.588Z,3.40
2023-02-04T01:43:11.868Z,5.00
2023-02-04T01:45:39.542Z,5.10
2023-02-04T01:48:07.557Z,4.10
2023-02-04T01:50:35.062Z,4.22
2023-02-04T01:53:02.477Z,5.35
2023-02-04T01:55:32.146Z,2.85
2023-02-04T01:57:59.215Z,5.32
2023-02-04T02:00:29.659Z,3.13
2023-02-04T02:02:57.690Z,3.35
2023-02-04T02:05:40.392Z,4.00
2023-02-04T02:08:08.376Z,3.58
2023-02-04T02:10:37.501Z,6.72
2023-02-04T02:13:05.991Z,3.67
2023-02-04T02:15:32.903Z,4.38
2023-02-04T02:17:59.669Z,4.75
2023-02-04T02:20:29.661Z,4.38
2023-02-04T02:23:06.546Z,4.10
2023-02-04T02:25:33.586Z,5.80
2023-02-04T02:28:01.964Z,7.65
2023-02-04T02:30:29.652Z,6.18
2023-02-04T02:32:57.582Z,7.78
2023-02-04T02:35:24.428Z,6.25
2023-02-04T02:37:51.432Z,7.37
2023-02-04T02:40:18.538Z,7.03
2023-02-04T02:42:48.534Z,4.18
2023-02-04T02:45:27.442Z,7.55
2023-02-04T02:47:56.284Z,6.07
2023-02-04T02:50:26.348Z,3.83
2023-02-04T02:52:53.930Z,12.32
2023-02-04T02:55:23.675Z,9.77
2023-02-04T02:57:52.645Z,8.00
2023-02-04T03:00:25.591Z,7.30
2023-02-04T03:03:16.501Z,7.15
2023-02-04T03:05:45.587Z,6.35
2023-02-04T03:08:14.857Z,13.70
2023-02-04T03:10:43.475Z,12.25
2023-02-04T03:13:12.385Z,6.28
2023-02-04T03:15:39.572Z,14.23
2023-02-04T03:18:06.519Z,12.48
2023-02-04T03:20:33.861Z,4.63
2023-02-04T03:23:00.789Z,5.65
2023-02-04T03:25:28.373Z,14.48
2023-02-04T03:27:57.738Z,6.85
2023-02-04T03:30:25.700Z,8.13
2023-02-04T03:32:53.440Z,8.13
2023-02-04T03:35:21.149Z,3.65
2023-02-04T03:37:47.942Z,6.88
2023-02-04T03:40:15.224Z,4.68
2023-02-04T03:42:41.958Z,5.78
2023-02-04T03:45:09.206Z,8.60
2023-02-04T03:47:35.964Z,4.45
2023-02-04T03:50:02.732Z,5.55
2023-02-04T03:52:29.453Z,6.53
2023-02-04T03:54:56.278Z,11.07
2023-02-04T03:57:23.088Z,8.93
2023-02-04T03:59:49.818Z,12.98
2023-02-04T04:02:16.582Z,12.82
2023-02-04T04:04:43.405Z,8.75
2023-02-04T04:07:10.143Z,11.52
2023-02-04T04:09:36.830Z,5.25
2023-02-04T04:12:04.575Z,13.63
2023-02-04T04:14:31.360Z,5.22
2023-02-04T04:16:58.139Z,8.48
2023-02-04T04:19:24.997Z,4.65
2023-02-04T04:21:51.843Z,8.63
2023-02-04T04:24:18.702Z,12.73
2023-02-04T04:26:45.499Z,4.90
2023-02-04T04:29:12.200Z,5.38
2023-02-04T04:31:39.040Z,11.02
2023-02-04T04:34:05.881Z,6.20
2023-02-04T04:36:32.672Z,8.23
2023-02-04T04:38:59.845Z,15.70
2023-02-04T04:41:26.683Z,8.70
2023-02-04T04:43:53.531Z,9.65
2023-02-04T04:46:20.406Z,6.03
2023-02-04T04:48:47.193Z,11.25
2023-02-04T04:51:14.153Z,11.13
2023-02-04T04:53:41.112Z,10.63
2023-02-04T04:56:08.092Z,9.63
2023-02-04T04:58:34.903Z,4.18
2023-02-04T05:01:01.663Z,7.60
2023-02-04T05:03:28.440Z,8.10
2023-02-04T05:05:55.164Z,5.95
2023-02-04T05:08:21.916Z,9.60
2023-02-04T05:10:48.808Z,5.63
2023-02-04T05:13:16.081Z,12.07
2023-02-04T05:15:42.844Z,3.70
2023-02-04T05:18:09.688Z,11.40
2023-02-04T05:20:36.448Z,14.05
2023-02-04T05:23:05.489Z,13.32
2023-02-04T05:25:32.625Z,8.73
2023-02-04T05:27:59.473Z,7.07
2023-02-04T05:30:26.299Z,9.95
2023-02-04T05:32:53.287Z,10.85
2023-02-04T05:35:20.576Z,8.52
2023-02-04T05:37:47.296Z,5.85
2023-02-04T05:40:14.592Z,6.38
2023-02-04T05:42:41.979Z,13.07
2023-02-04T05:45:15.876Z,6.35
2023-02-04T05:47:42.920Z,10.98
2023-02-04T05:50:09.912Z,12.80
2023-02-04T05:52:36.658Z,10.02
2023-02-04T05:55:03.633Z,12.40
2023-02-04T05:57:30.427Z,7.05
2023-02-04T05:59:57.136Z,6.05
2023-02-04T06:02:23.894Z,5.35
2023-02-04T06:04:50.724Z,9.48
2023-02-04T06:07:17.477Z,9.35
2023-02-04T06:09:44.821Z,5.75
2023-02-04T06:12:11.663Z,5.10
2023-02-04T06:14:38.413Z,9.70
2023-02-04T06:17:05.159Z,9.52
2023-02-04T06:19:32.059Z,5.72
2023-02-04T06:21:58.854Z,9.13
2023-02-04T06:24:25.544Z,5.85
2023-02-04T06:26:52.257Z,6.50
2023-02-04T06:29:19.109Z,12.10
2023-02-04T06:31:47.194Z,7.72
2023-02-04T06:34:14.162Z,4.68
2023-02-04T06:36:41.044Z,7.43
2023-02-04T06:39:07.761Z,8.20
2023-02-04T06:41:34.477Z,14.02
2023-02-04T06:44:01.219Z,8.82
2023-02-04T06:46:28.049Z,10.45
2023-02-04T06:48:54.902Z,6.03
2023-02-04T06:51:21.637Z,11.35
2023-02-04T06:53:48.403Z,8.48
2023-02-04T06:56:15.076Z,13.43
2023-02-04T06:58:41.815Z,12.02
2023-02-04T07:01:08.671Z,10.07
2023-02-04T07:03:35.477Z,7.45
2023-02-04T07:06:02.199Z,6.45
2023-02-04T07:08:28.960Z,9.13
2023-02-04T07:10:55.673Z,9.20
2023-02-04T07:13:22.578Z,5.70
2023-02-04T07:15:49.815Z,6.82
2023-02-04T07:18:16.739Z,9.95
2023-02-04T07:20:43.436Z,6.93
2023-02-04T07:23:10.175Z,8.63
2023-02-04T07:25:36.934Z,7.72
2023-02-04T07:28:05.626Z,12.00
2023-02-04T07:30:33.234Z,10.48
2023-02-04T07:33:00.321Z,14.48
2023-02-04T07:35:27.213Z,5.97
2023-02-04T07:37:54.021Z,6.30
2023-02-04T07:40:21.859Z,15.68
2023-02-04T07:42:48.571Z,6.20
2023-02-04T07:45:15.399Z,10.52
2023-02-04T07:47:42.092Z,12.57
2023-02-04T07:50:09.275Z,11.93
2023-02-04T07:52:35.993Z,12.13
2023-02-04T07:55:02.812Z,6.70
2023-02-04T07:57:30.109Z,8.90
2023-02-04T07:59:57.059Z,9.18
2023-02-04T08:02:24.059Z,7.20
2023-02-04T08:04:51.200Z,7.32
2023-02-04T08:07:18.123Z,7.18
2023-02-04T08:09:44.854Z,15.93
2023-02-04T08:12:11.585Z,5.75
2023-02-04T08:14:38.333Z,12.07
2023-02-04T08:17:05.094Z,10.10
2023-02-04T08:19:31.938Z,11.77
2023-02-04T08:21:58.818Z,14.05
2023-02-04T08:24:25.546Z,3.58
2023-02-04T08:26:52.399Z,10.23
2023-02-04T08:29:19.581Z,11.27
2023-02-04T08:31:47.788Z,8.18
2023-02-04T08:34:14.628Z,5.75
2023-02-04T08:36:41.512Z,7.80
2023-02-04T08:39:08.290Z,7.10
2023-02-04T08:41:35.082Z,6.45
2023-02-04T08:44:02.137Z,5.40
2023-02-04T08:46:29.405Z,6.82
2023-02-04T08:48:56.895Z,9.65
2023-02-04T08:51:23.620Z,6.68
2023-02-04T08:53:50.442Z,7.32
2023-02-04T08:56:19.161Z,9.30
2023-02-04T08:58:46.453Z,8.73
2023-02-04T09:01:13.205Z,7.93
2023-02-04T09:03:40.308Z,9.10
2023-02-04T09:06:07.347Z,10.93
2023-02-04T09:08:34.411Z,10.65
2023-02-04T09:11:01.157Z,7.13
2023-02-04T09:13:27.918Z,3.40
2023-02-04T09:15:54.833Z,12.15
2023-02-04T09:18:22.646Z,10.52
2023-02-04T09:20:49.825Z,12.13
2023-02-04T09:23:17.284Z,9.15
2023-02-04T09:25:45.699Z,3.63
2023-02-04T09:28:14.200Z,12.70
2023-02-04T09:30:42.208Z,10.18
2023-02-04T09:33:10.659Z,12.70
2023-02-04T09:35:37.805Z,7.13
2023-02-04T09:38:05.353Z,5.38
2023-02-04T09:40:36.120Z,11.68
2023-02-04T09:43:04.877Z,15.07
2023-02-04T09:45:36.015Z,9.82
2023-02-04T09:48:05.184Z,5.80
2023-02-04T09:50:33.225Z,6.70
2023-02-04T09:53:05.486Z,5.63
2023-02-04T09:55:35.865Z,13.15
2023-02-04T09:58:03.240Z,6.63
2023-02-04T10:00:31.639Z,5.85
2023-02-04T10:03:00.792Z,9.07
2023-02-04T10:05:33.594Z,14.50
2023-02-04T10:08:00.770Z,5.20
2023-02-04T10:10:28.460Z,8.05
2023-02-04T10:13:02.153Z,5.72
2023-02-04T10:15:29.245Z,11.40
2023-02-04T10:18:01.702Z,16.77
2023-02-04T10:20:28.449Z,10.65
2023-02-04T10:22:56.276Z,7.97
2023-02-04T10:25:25.333Z,13.38
2023-02-04T10:27:53.333Z,9.25
2023-02-04T10:30:26.860Z,6.25
2023-02-04T10:32:54.406Z,8.57
2023-02-04T10:35:22.285Z,4.80
2023-02-04T10:38:02.077Z,8.25
2023-02-04T10:40:33.868Z,9.73
2023-02-04T10:43:10.181Z,8.18
2023-02-04T10:45:37.575Z,8.38
2023-02-04T10:48:04.857Z,10.23
2023-02-04T10:50:32.020Z,6.05
2023-02-04T10:53:18.962Z,12.05
2023-02-04T10:55:47.808Z,6.18
2023-02-04T10:58:25.871Z,6.82
2023-02-04T11:00:52.585Z,6.22
2023-02-04T11:03:32.802Z,4.55
2023-02-04T11:06:01.751Z,7.10
2023-02-04T11:08:35.471Z,7.40
2023-02-04T11:11:08.841Z,8.48
2023-02-04T11:13:43.337Z,4.22
2023-02-04T11:16:19.069Z,4.90
2023-02-04T11:18:46.464Z,4.20
2023-02-04T11:21:23.074Z,5.65
2023-02-04T11:23:50.552Z,7.57
2023-02-04T11:26:34.006Z,4.78
2023-02-04T11:29:00.753Z,6.55
2023-02-04T11:31:27.617Z,7.35
2023-02-04T11:34:26.800Z,3.17
2023-02-04T11:36:59.035Z,3.67
2023-02-04T11:39:34.129Z,4.07
2023-02-04T11:42:01.507Z,5.05
2023-02-04T11:44:29.014Z,5.10
2023-02-04T11:46:56.561Z,4.00
2023-02-04T11:49:26.708Z,8.40
2023-02-04T11:52:08.857Z,8.05
2023-02-04T11:54:36.544Z,3.35
2023-02-04T11:57:04.175Z,4.82
2023-02-04T11:59:31.188Z,2.95
2023-02-04T12:02:19.279Z,10.32
2023-02-04T12:04:57.101Z,4.60
2023-02-04T12:07:26.797Z,5.63
2023-02-04T12:09:54.192Z,4.60
2023-02-04T12:12:31.135Z,7.63
2023-02-04T12:15:02.103Z,9.98
2023-02-04T12:17:28.879Z,4.68
2023-02-04T12:19:55.635Z,6.85
2023-02-04T12:22:22.465Z,2.97
2023-02-04T12:24:49.263Z,2.65
2023-02-04T12:27:16.003Z,1.77
2023-02-04T12:29:42.761Z,4.07
2023-02-04T12:32:09.593Z,2.00
2023-02-04T12:34:36.309Z,4.30
2023-02-04T12:37:03.086Z,2.00
2023-02-04T12:39:31.926Z,5.63
2023-02-04T12:42:13.116Z,8.73
2023-02-04T12:44:39.935Z,3.08
2023-02-04T12:47:06.705Z,3.17
2023-02-04T12:49:33.398Z,2.70
2023-02-04T12:52:02.242Z,1.20
2023-02-04T12:54:28.990Z,3.08
2023-02-04T12:56:58.264Z,2.45
2023-02-04T12:59:26.061Z,2.13
2023-02-04T13:01:52.960Z,1.30
2023-02-04T13:04:19.744Z,2.55
2023-02-04T13:06:46.454Z,1.00
2023-02-04T13:09:13.184Z,0.93
2023-02-04T13:11:39.981Z,2.03
2023-02-04T13:14:06.675Z,1.30
2023-02-04T13:16:33.496Z,3.83
2023-02-04T13:19:00.276Z,7.43
2023-02-04T13:21:27.057Z,4.78
2023-02-04T13:23:54.184Z,2.60
2023-02-04T13:26:20.934Z,5.28
2023-02-04T13:28:47.658Z,1.85
2023-02-04T13:31:14.399Z,1.70
2023-02-04T13:33:41.218Z,3.25
2023-02-04T13:36:08.092Z,1.45
2023-02-04T13:38:34.925Z,2.42
2023-02-04T13:41:01.714Z,2.55
2023-02-04T13:43:28.493Z,1.15
2023-02-04T13:45:55.353Z,1.33
2023-02-04T13:48:22.113Z,2.95
2023-02-04T13:50:50.857Z,1.67
2023-02-04T13:53:17.748Z,3.00
2023-02-04T13:55:44.589Z,4.70
2023-02-04T13:58:11.421Z,3.83
2023-02-04T14:00:38.192Z,1.50
2023-02-04T14:03:04.993Z,4.72
2023-02-04T14:05:31.750Z,1.10
2023-02-04T14:07:58.591Z,5.35
2023-02-04T14:10:26.857Z,3.10
2023-02-04T14:12:54.190Z,2.45
2023-02-04T14:15:21.067Z,3.67
2023-02-04T14:17:47.875Z,1.15
2023-02-04T14:20:14.668Z,1.77
2023-02-04T14:22:41.443Z,2.75
2023-02-04T14:25:10.142Z,2.47
2023-02-04T14:27:38.459Z,1.42
2023-02-04T14:30:06.248Z,5.75
2023-02-04T14:32:33.003Z,1.45
2023-02-04T14:34:59.735Z,2.08
2023-02-04T14:37:28.567Z,5.05
2023-02-04T14:39:56.135Z,1.52
2023-02-04T14:42:22.987Z,2.55
2023-02-04T14:44:49.845Z,2.08
2023-02-04T14:47:16.560Z,2.45
2023-02-04T14:49:43.306Z,3.33
2023-02-04T14:52:11.523Z,1.65
2023-02-04T14:54:38.536Z,1.17
2023-02-04T14:57:05.368Z,1.70
2023-02-04T14:59:32.256Z,1.88
2023-02-04T15:01:58.972Z,2.33
2023-02-04T15:04:25.721Z,4.10
2023-02-04T15:06:53.961Z,2.88
2023-02-04T15:09:20.744Z,3.33
2023-02-04T15:11:47.560Z,2.95
2023-02-04T15:14:14.281Z,1.38
2023-02-04T15:16:43.096Z,2.55
2023-02-04T15:19:10.371Z,2.22
2023-02-04T15:21:37.105Z,2.15
2023-02-04T15:24:03.928Z,4.28
2023-02-04T15:26:30.865Z,4.93
2023-02-04T15:28:57.773Z,1.67
2023-02-04T15:31:26.079Z,1.83
2023-02-04T15:33:52.993Z,2.88
2023-02-04T15:36:19.982Z,2.00
2023-02-04T15:38:46.801Z,1.55
2023-02-04T15:41:13.642Z,2.80
2023-02-04T15:43:40.500Z,2.45
2023-02-04T15:46:07.856Z,2.75
2023-02-04T15:48:34.730Z,2.60
2023-02-04T15:51:01.495Z,2.83
2023-02-04T15:53:28.270Z,1.40
2023-02-04T15:55:54.988Z,4.70
2023-02-04T15:58:21.740Z,2.08
2023-02-04T16:00:48.578Z,4.75
2023-02-04T16:03:15.309Z,2.20
2023-02-04T16:05:42.071Z,1.80
2023-02-04T16:08:08.907Z,4.07
2023-02-04T16:10:35.812Z,2.30
2023-02-04T16:13:02.818Z,2.22
2023-02-04T16:15:29.625Z,3.25
2023-02-04T16:17:57.117Z,2.40
2023-02-04T16:20:23.869Z,3.40
2023-02-04T16:22:50.741Z,2.35
2023-02-04T16:25:17.556Z,5.20
2023-02-04T16:27:44.347Z,3.33
2023-02-04T16:30:12.426Z,2.00
2023-02-04T16:32:39.236Z,6.28
2023-02-04T16:35:06.809Z,3.30
2023-02-04T16:37:34.303Z,3.47
2023-02-04T16:40:01.410Z,4.32
2023-02-04T16:42:29.628Z,4.20
2023-02-04T16:44:56.322Z,3.55
2023-02-04T16:47:23.465Z,4.32
2023-02-04T16:49:54.229Z,4.50
2023-02-04T16:52:21.232Z,4.63
2023-02-04T16:54:47.955Z,4.68
2023-02-04T16:57:15.265Z,4.60
2023-02-04T16:59:42.066Z,5.63
2023-02-04T17:02:10.144Z,3.58
2023-02-04T17:04:36.937Z,5.38
2023-02-04T17:07:04.199Z,4.20
2023-02-04T17:09:31.227Z,5.97
2023-02-04T17:11:58.316Z,4.22
2023-02-04T17:14:25.178Z,3.78
2023-02-04T17:16:51.889Z,5.15
2023-02-04T17:19:19.167Z,6.28
2023-02-04T17:21:46.697Z,6.55
2023-02-04T17:24:13.579Z,6.40
2023-02-04T17:26:40.583Z,6.57
2023-02-04T17:29:12.335Z,7.32
2023-02-04T17:31:40.087Z,6.55
2023-02-04T17:34:06.895Z,7.22
2023-02-04T17:36:34.538Z,5.38
2023-02-04T17:39:01.410Z,8.00
2023-02-04T17:41:28.487Z,5.78
2023-02-04T17:43:55.503Z,7.70
2023-02-04T17:46:22.262Z,8.98
2023-02-04T17:48:49.024Z,8.63
2023-02-04T17:51:15.769Z,10.95
2023-02-04T17:53:42.717Z,6.47
2023-02-04T17:56:14.394Z,6.68
2023-02-04T17:58:42.243Z,7.40
2023-02-04T18:01:18.090Z,7.78
2023-02-04T18:03:46.464Z,5.03
2023-02-04T18:06:22.298Z,4.82
2023-02-04T18:08:50.702Z,4.70
2023-02-04T18:11:23.004Z,5.43
2023-02-04T18:13:50.217Z,10.65
2023-02-04T18:16:22.050Z,5.70
2023-02-04T18:18:49.299Z,5.93
2023-02-04T18:21:29.267Z,6.95
2023-02-04T18:24:11.167Z,8.77
2023-02-04T18:26:53.028Z,16.98
2023-02-04T18:29:38.438Z,16.85
2023-02-04T18:32:43.667Z,17.70
2023-02-04T18:35:22.805Z,15.90
2023-02-04T18:37:51.865Z,13.30
2023-02-04T18:40:24.483Z,15.02
2023-02-04T18:43:22.555Z,11.30
2023-02-04T18:45:49.327Z,16.23
2023-02-04T18:48:16.398Z,18.20
2023-02-04T18:50:44.446Z,12.38
2023-02-04T18:53:11.151Z,13.40
2023-02-04T18:55:40.210Z,16.27
2023-02-04T18:58:18.967Z,14.25
2023-02-04T19:00:52.298Z,22.30
2023-02-04T19:03:19.149Z,12.63
2023-02-04T19:05:50.260Z,15.23
2023-02-04T19:08:19.543Z,12.20
2023-02-04T19:10:46.393Z,12.90
2023-02-04T19:13:26.413Z,10.27
2023-02-04T19:15:59.943Z,10.95
2023-02-04T19:18:37.648Z,11.82
2023-02-04T19:21:22.184Z,10.13
2023-02-04T19:23:59.023Z,12.27
2023-02-04T19:26:29.256Z,10.00
2023-02-04T19:28:56.196Z,11.02
2023-02-04T19:31:32.606Z,11.32
2023-02-04T19:34:16.268Z,15.75
2023-02-04T19:36:42.996Z,12.68
2023-02-04T19:39:28.003Z,18.70
2023-02-04T19:41:55.468Z,19.73
2023-02-04T19:44:35.005Z,23.30
2023-02-04T19:47:24.576Z,18.65
2023-02-04T19:49:55.253Z,21.38
2023-02-04T19:52:48.179Z,18.75
2023-02-04T19:55:17.985Z,14.00
2023-02-04T19:57:46.477Z,8.05
2023-02-04T20:00:37.316Z,10.23
2023-02-04T20:03:31.099Z,12.38
2023-02-04T20:06:05.617Z,11.60
2023-02-04T20:08:45.824Z,18.15
2023-02-04T20:11:15.618Z,14.15
2023-02-04T20:13:42.379Z,12.60
2023-02-04T20:16:38.712Z,14.77
2023-02-04T20:19:28.828Z,13.45
2023-02-04T20:22:23.473Z,12.57
2023-02-04T20:24:59.010Z,7.95
2023-02-04T20:27:37.304Z,8.13
2023-02-04T20:30:11.879Z,9.10
2023-02-04T20:32:53.494Z,11.10
2023-02-04T20:35:20.143Z,10.27
2023-02-04T20:37:55.232Z,10.25
2023-02-04T20:40:27.008Z,8.00
2023-02-04T20:43:14.179Z,7.70
2023-02-04T20:45:49.936Z,7.72
2023-02-04T20:48:16.715Z,5.88
2023-02-04T20:50:52.839Z,6.00
2023-02-04T20:53:22.830Z,5.72
2023-02-04T20:55:55.634Z,9.23
2023-02-04T20:58:28.679Z,6.18
2023-02-04T21:00:56.105Z,10.85
2023-02-04T21:03:26.019Z,7.55
2023-02-04T21:05:54.240Z,6.47
2023-02-04T21:08:20.961Z,10.80
2023-02-04T21:10:47.983Z,5.75
2023-02-04T21:13:14.714Z,11.32
2023-02-04T21:15:41.464Z,8.52
2023-02-04T21:18:08.590Z,7.80
2023-02-04T21:20:37.040Z,8.30
2023-02-04T21:23:05.073Z,9.68
2023-02-04T21:25:32.361Z,10.30
2023-02-04T21:27:59.653Z,8.02
2023-02-04T21:30:30.280Z,9.20
2023-02-04T21:32:58.267Z,11.48
2023-02-04T21:35:25.111Z,11.88
2023-02-04T21:37:52.525Z,12.18
2023-02-04T21:40:22.024Z,17.33
2023-02-04T21:42:49.800Z,14.55
2023-02-04T21:45:18.707Z,16.20
2023-02-04T21:47:46.401Z,23.17
2023-02-04T21:50:14.609Z,21.65
2023-02-04T21:52:42.780Z,18.08
2023-02-04T21:55:10.894Z,29.38
2023-02-04T21:57:38.113Z,30.40
2023-02-04T22:00:06.550Z,27.13
2023-02-04T22:02:33.413Z,22.65
2023-02-04T22:05:00.386Z,24.23
2023-02-04T22:07:27.236Z,20.40
2023-02-04T22:09:53.939Z,18.63
2023-02-04T22:12:20.662Z,20.63
2023-02-04T22:15:05.706Z,17.77
2023-02-04T22:17:32.627Z,24.88
2023-02-04T22:19:59.497Z,21.02
2023-02-04T22:22:26.444Z,19.92
2023-02-04T22:24:53.241Z,27.25
2023-02-04T22:27:20.057Z,18.50
2023-02-04T22:29:46.749Z,22.13
2023-02-04T22:32:13.591Z,23.70
2023-02-04T22:34:40.300Z,20.40
2023-02-04T22:37:07.050Z,21.65
2023-02-04T22:39:33.931Z,21.83
2023-02-04T22:42:00.817Z,23.08
2023-02-04T22:44:27.604Z,19.15
2023-02-04T22:46:54.463Z,20.48
2023-02-04T22:49:21.211Z,19.42
2023-02-04T22:51:48.009Z,30.00
2023-02-04T22:54:14.822Z,53.53
2023-02-04T22:56:41.510Z,52.50
2023-02-04T22:59:08.269Z,38.67
2023-02-04T23:01:34.969Z,38.60
2023-02-04T23:04:01.788Z,27.38
2023-02-04T23:06:28.519Z,29.17
2023-02-04T23:08:55.342Z,19.60
2023-02-04T23:11:23.303Z,16.75
2023-02-04T23:13:50.396Z,12.57
2023-02-04T23:16:19.057Z,15.10
2023-02-04T23:18:46.204Z,13.73
2023-02-04T23:21:13.705Z,16.63
2023-02-04T23:23:40.955Z,14.10
2023-02-04T23:26:08.517Z,15.15
2023-02-04T23:28:35.234Z,15.95
2023-02-04T23:31:02.024Z,13.52
2023-02-04T23:33:28.890Z,14.40
2023-02-04T23:35:55.750Z,14.43
2023-02-04T23:38:22.640Z,15.23
2023-02-04T23:40:49.363Z,12.82
2023-02-04T23:43:16.107Z,10.73
2023-02-04T23:45:45.297Z,8.20
2023-02-04T23:48:12.468Z,10.93
2023-02-04T23:50:39.226Z,10.70
2023-02-04T23:53:06.012Z,13.48
2023-02-04T23:55:33.225Z,10.75
2023-02-04T23:58:00.162Z,13.18
